Time;durP1;ratioP1;P1;durP2;ratioP2;P2;SDS_P1;SDS_P2;PMS_P1;PMS_P2;Temp;Humidity;BMP_temperature;BMP_pressure;BME280_temperature;BME280_humidity;BME280_pressure;Samples;Min_cycle;Max_cycle;Signal;HPM_P1;HPM_P2
2022/06/27 00:01:34;;;;;;;5.13;4.63;;;;;;;20.36;78.49;97233.00;5068717;28;20192;-72
2022/06/27 00:04:01;;;;;;;7.53;4.60;;;;;;;20.17;78.48;97228.34;5070089;28;20262;-72
2022/06/27 00:06:28;;;;;;;6.97;4.90;;;;;;;20.07;79.01;97230.88;5067428;28;20189;-73
2022/06/27 00:08:56;;;;;;;6.50;4.47;;;;;;;20.08;79.56;97235.19;5069996;28;20794;-73
2022/06/27 00:11:23;;;;;;;6.17;4.43;;;;;;;20.05;79.36;97250.41;5069094;28;20753;-72
2022/06/27 00:13:50;;;;;;;8.57;4.60;;;;;;;20.14;78.82;97239.97;5069563;28;20196;-73
2022/06/27 00:16:17;;;;;;;6.73;5.17;;;;;;;20.22;78.35;97237.56;5069651;28;20199;-72
2022/06/27 00:19:04;;;;;;;5.40;4.20;;;;;;;20.19;78.31;97231.69;5068619;28;20633;-73
2022/06/27 00:21:31;;;;;;;4.70;4.30;;;;;;;20.18;78.42;97238.75;5069629;28;20189;-73
2022/06/27 00:23:58;;;;;;;5.57;4.30;;;;;;;20.20;78.25;97249.16;5068323;28;20220;-72
2022/06/27 00:26:25;;;;;;;5.30;4.77;;;;;;;20.17;78.36;97236.25;5069473;28;20182;-72
2022/06/27 00:28:52;;;;;;;6.00;4.80;;;;;;;20.02;78.52;97238.31;5067329;28;20196;-73
2022/06/27 00:31:19;;;;;;;8.00;4.93;;;;;;;19.89;79.06;97240.25;5068983;28;20283;-72
2022/06/27 00:33:47;;;;;;;11.40;5.33;;;;;;;19.69;79.59;97246.25;5069380;28;20644;-72
2022/06/27 00:36:14;;;;;;;8.23;4.90;;;;;;;19.46;80.39;97244.59;5066886;28;20224;-72
2022/06/27 00:38:41;;;;;;;6.93;5.40;;;;;;;19.38;81.03;97239.09;5069531;28;20190;-72
2022/06/27 00:41:08;;;;;;;5.83;5.00;;;;;;;19.39;80.73;97246.84;5068415;28;20227;-73
2022/06/27 00:43:36;;;;;;;11.47;5.60;;;;;;;19.44;80.27;97252.59;5069536;28;20234;-72
2022/06/27 00:46:03;;;;;;;6.63;5.40;;;;;;;19.26;80.82;97246.13;5068352;28;20184;-72
2022/06/27 00:48:30;;;;;;;7.40;5.40;;;;;;;19.11;81.50;97222.81;5067310;28;20197;-72
2022/06/27 00:50:57;;;;;;;5.20;4.70;;;;;;;19.25;80.74;97238.31;5067510;28;20667;-72
2022/06/27 00:53:24;;;;;;;6.00;4.80;;;;;;;19.34;79.88;97240.28;5067891;28;20644;-72
2022/06/27 00:55:55;;;;;;;5.57;4.97;;;;;;;19.25;80.19;97227.81;5067727;28;20651;-72
2022/06/27 00:58:22;;;;;;;7.33;4.80;;;;;;;19.28;79.87;97222.34;5067734;28;20246;-72
2022/06/27 01:00:50;;;;;;;5.43;4.93;;;;;;;19.40;79.31;97231.94;5069088;28;20261;-72
2022/06/27 01:03:17;;;;;;;7.77;5.03;;;;;;;19.15;80.11;97227.72;5066644;28;20189;-72
2022/06/27 01:05:53;;;;;;;5.83;5.10;;;;;;;18.89;81.00;97236.75;5068490;28;20199;-72
2022/06/27 01:08:25;;;;;;;7.90;5.80;;;;;;;18.64;82.47;97234.28;5068761;28;20196;-72
2022/06/27 01:10:53;;;;;;;7.47;5.50;;;;;;;18.57;83.47;97235.69;5066015;28;20782;-72
2022/06/27 01:13:23;;;;;;;8.00;5.60;;;;;;;18.72;82.88;97224.06;5068629;28;20195;-72
2022/06/27 01:15:52;;;;;;;6.40;5.13;;;;;;;18.88;82.27;97232.44;5067305;28;20199;-72
2022/06/27 01:18:19;;;;;;;6.80;5.47;;;;;;;18.75;82.60;97233.50;5067066;28;20187;-72
2022/06/27 01:20:46;;;;;;;9.03;6.17;;;;;;;18.55;83.41;97227.09;5066747;28;20598;-72
2022/06/27 01:23:14;;;;;;;7.30;5.87;;;;;;;18.43;83.84;97220.09;5067675;28;20611;-72
2022/06/27 01:25:41;;;;;;;7.13;5.60;;;;;;;18.38;84.31;97224.88;5067068;28;20321;-72
2022/06/27 01:28:11;;;;;;;6.53;5.87;;;;;;;18.16;85.30;97220.34;5065829;28;20183;-73
2022/06/27 01:30:38;;;;;;;8.63;6.80;;;;;;;18.14;85.96;97229.28;5066973;28;20221;-72
2022/06/27 01:33:06;;;;;;;11.40;6.40;;;;;;;18.20;86.20;97227.03;5065875;28;20252;-72
2022/06/27 01:35:36;;;;;;;10.40;6.60;;;;;;;18.14;85.97;97224.88;5066441;28;20232;-72
2022/06/27 01:38:04;;;;;;;9.27;6.03;;;;;;;18.39;85.21;97227.38;5066585;28;20273;-72
2022/06/27 01:40:32;;;;;;;9.93;5.87;;;;;;;18.60;83.86;97236.31;5065991;28;20205;-72
2022/06/27 01:43:00;;;;;;;8.77;5.40;;;;;;;18.62;83.34;97237.03;5066871;28;20212;-72
2022/06/27 01:45:29;;;;;;;11.33;5.90;;;;;;;18.54;83.00;97236.78;5065440;28;20227;-72
2022/06/27 01:47:56;;;;;;;14.37;6.20;;;;;;;18.36;83.70;97235.44;5066966;28;20190;-72
2022/06/27 01:50:30;;;;;;;8.77;6.23;;;;;;;18.17;83.89;97232.53;5065397;28;20200;-72
2022/06/27 01:53:00;;;;;;;5.83;5.20;;;;;;;18.12;84.29;97239.88;5049790;28;20195;-72
2022/06/27 01:55:28;;;;;;;11.80;5.53;;;;;;;18.25;83.86;97234.59;5066183;28;20190;-72
2022/06/27 01:57:55;;;;;;;9.47;5.33;;;;;;;18.27;83.07;97237.94;5066674;28;20196;-72
2022/06/27 02:00:23;;;;;;;10.97;6.23;;;;;;;18.48;82.19;97234.59;5066268;28;20562;-72
2022/06/27 02:02:56;;;;;;;9.97;5.27;;;;;;;18.64;81.27;97236.91;5066354;28;20693;-72
2022/06/27 02:05:24;;;;;;;7.70;4.90;;;;;;;18.79;80.43;97234.94;5066232;28;20412;-71
2022/06/27 02:07:57;;;;;;;8.20;4.90;;;;;;;18.66;80.11;97240.25;5065433;28;20688;-72
2022/06/27 02:10:24;;;;;;;9.50;5.10;;;;;;;18.35;81.66;97233.78;5066061;28;20194;-72
2022/06/27 02:12:51;;;;;;;9.03;5.57;;;;;;;18.26;82.19;97236.28;5049755;28;20199;-72
2022/06/27 02:15:20;;;;;;;5.63;5.13;;;;;;;18.18;82.27;97246.44;5065142;28;20264;-72
2022/06/27 02:17:48;;;;;;;6.57;5.03;;;;;;;18.12;82.65;97245.13;5066073;28;20270;-72
2022/06/27 02:20:16;;;;;;;6.30;5.10;;;;;;;18.10;82.90;97238.31;5064920;28;20189;-72
2022/06/27 02:22:43;;;;;;;8.30;5.30;;;;;;;18.22;82.74;97242.66;5066891;28;20191;-71
2022/06/27 02:25:10;;;;;;;8.20;4.73;;;;;;;18.43;81.87;97241.09;5065052;28;20226;-72
2022/06/27 02:27:39;;;;;;;9.47;5.60;;;;;;;18.64;80.87;97245.63;5066994;28;20255;-72
2022/06/27 02:30:13;;;;;;;11.63;5.53;;;;;;;18.38;80.87;97228.31;5067119;28;20248;-72
2022/06/27 02:32:40;;;;;;;9.67;6.10;;;;;;;18.38;81.40;97240.59;5066365;28;20203;-72
2022/06/27 02:35:08;;;;;;;10.37;5.83;;;;;;;18.33;81.92;97227.81;5065893;28;20290;-72
2022/06/27 02:37:36;;;;;;;6.47;5.10;;;;;;;18.52;80.81;97238.69;5064426;28;20773;-72
2022/06/27 02:40:05;;;;;;;7.47;5.70;;;;;;;18.53;80.60;97239.50;5066042;28;20660;-73
2022/06/27 02:42:34;;;;;;;9.57;5.87;;;;;;;18.63;80.23;97224.72;5065117;28;20191;-73
2022/06/27 02:45:02;;;;;;;8.27;5.50;;;;;;;18.71;79.90;97238.13;5066682;28;20273;-72
2022/06/27 02:47:32;;;;;;;7.73;4.50;;;;;;;18.89;80.09;97247.25;5048834;28;20195;-72
2022/06/27 02:50:00;;;;;;;7.63;5.40;;;;;;;18.73;79.60;97235.38;5048333;28;20229;-72
2022/06/27 02:52:40;;;;;;;10.80;6.17;;;;;;;18.37;80.32;97244.16;5050033;28;20200;-72
2022/06/27 02:55:14;;;;;;;8.03;5.63;;;;;;;18.33;81.41;97245.34;5048814;28;20196;-71
2022/06/27 02:58:34;;;;;;;8.90;6.57;;;;;;;18.28;81.69;97260.59;5066765;28;20716;-72
2022/06/27 03:01:02;;;;;;;7.53;6.40;;;;;;;17.86;82.78;97254.88;5029965;28;20232;-72
2022/06/27 03:03:37;;;;;;;8.33;6.37;;;;;;;17.82;82.91;97258.66;5048115;28;20226;-73
2022/06/27 03:06:14;;;;;;;6.93;6.20;;;;;;;17.77;83.48;97244.19;5050464;28;20204;-73
2022/06/27 03:08:46;;;;;;;11.47;6.80;;;;;;;17.81;83.65;97254.34;5066763;28;20190;-70
2022/06/27 03:11:16;;;;;;;9.00;6.50;;;;;;;17.73;84.45;97259.28;5049587;28;20591;-71
2022/06/27 03:13:45;;;;;;;8.87;6.50;;;;;;;17.70;84.09;97254.25;5067088;28;20244;-71
2022/06/27 03:16:13;;;;;;;8.77;6.33;;;;;;;17.78;84.02;97244.06;5067387;28;20251;-71
2022/06/27 03:18:42;;;;;;;11.73;6.07;;;;;;;17.76;83.68;97248.59;5066428;28;20252;-72
2022/06/27 03:21:29;;;;;;;10.07;7.13;;;;;;;17.70;84.42;97256.88;5081395;28;20201;-71
2022/06/27 03:24:00;;;;;;;11.13;6.50;;;;;;;17.77;84.18;97244.19;5084080;28;20275;-71
2022/06/27 03:26:33;;;;;;;6.43;5.80;;;;;;;18.11;82.95;97245.25;5086208;28;20357;-72
2022/06/27 03:29:02;;;;;;;10.47;6.70;;;;;;;18.34;81.86;97249.66;5088811;28;20194;-71
2022/06/27 03:31:30;;;;;;;7.37;6.20;;;;;;;18.25;82.53;97252.94;5061384;28;20195;-71
2022/06/27 03:33:58;;;;;;;9.97;6.60;;;;;;;18.07;83.31;97251.66;5048905;28;20187;-71
2022/06/27 03:36:36;;;;;;;7.93;6.40;;;;;;;17.95;83.57;97247.28;5036994;28;20339;-71
2022/06/27 03:39:04;;;;;;;7.57;5.90;;;;;;;18.24;82.99;97246.00;5051706;28;20669;-71
2022/06/27 03:41:31;;;;;;;8.80;6.00;;;;;;;18.48;81.57;97252.13;5036267;28;20183;-71
2022/06/27 03:43:58;;;;;;;10.37;7.10;;;;;;;18.61;80.46;97260.75;5070492;28;20191;-71
2022/06/27 03:46:26;;;;;;;10.97;7.90;;;;;;;18.67;80.35;97268.16;5051224;28;20191;-70
2022/06/27 03:52:12;;;;;;;8.63;6.17;;;;;;;19.78;77.05;97263.94;5040856;28;20220;-71
2022/06/27 03:54:39;;;;;;;8.47;6.53;;;;;;;20.24;73.78;97259.31;5053190;28;20613;-70
2022/06/27 03:57:06;;;;;;;11.17;6.40;;;;;;;20.83;71.33;97270.22;5063702;28;20237;-71
2022/06/27 03:59:33;;;;;;;6.43;5.77;;;;;;;20.77;70.80;97265.44;5071293;28;20200;-70
2022/06/27 04:02:00;;;;;;;9.43;5.87;;;;;;;20.83;70.86;97264.97;5071976;28;20241;-70
2022/06/27 04:04:37;;;;;;;9.37;6.40;;;;;;;20.98;69.84;97253.13;5064168;28;20303;-70
2022/06/27 04:07:05;;;;;;;10.00;5.93;;;;;;;21.35;69.24;97260.59;5051556;28;20186;-70
2022/06/27 04:09:33;;;;;;;12.00;5.73;;;;;;;21.94;67.08;97260.72;5050747;28;20189;-71
2022/06/27 04:12:00;;;;;;;9.23;5.40;;;;;;;22.20;65.81;97257.44;5033920;28;20206;-71
2022/06/27 04:14:51;;;;;;;5.53;4.97;;;;;;;22.13;65.91;97269.53;5030950;28;20197;-71
2022/06/27 04:17:46;;;;;;;10.00;5.77;;;;;;;21.93;66.43;97259.06;5067963;28;20193;-71
2022/06/27 04:20:46;;;;;;;7.03;5.00;;;;;;;21.87;66.64;97273.59;5034359;28;20315;-71
2022/06/27 04:23:13;;;;;;;8.17;5.60;;;;;;;21.79;66.58;97260.22;5034231;28;20197;-71
2022/06/27 04:26:09;;;;;;;9.43;5.00;;;;;;;21.79;66.52;97270.78;5054248;28;20367;-71
2022/06/27 04:28:37;;;;;;;8.77;4.63;;;;;;;21.38;68.00;97255.06;5069403;28;20190;-71
2022/06/27 04:31:04;;;;;;;8.93;5.30;;;;;;;21.81;67.47;97268.84;5033886;28;20198;-71
2022/06/27 04:33:31;;;;;;;6.97;4.60;;;;;;;22.40;65.87;97271.53;5055009;28;20637;-71
2022/06/27 04:36:04;;;;;;;4.67;4.27;;;;;;;22.47;65.34;97267.34;5071717;28;20222;-71
2022/06/27 04:38:32;;;;;;;9.23;4.57;;;;;;;22.10;66.79;97277.72;5054124;28;20696;-71
2022/06/27 04:41:08;;;;;;;6.83;4.20;;;;;;;21.79;68.48;97266.34;5089275;28;20186;-71
2022/06/27 04:43:38;;;;;;;10.03;5.63;;;;;;;22.20;67.35;97273.28;5070057;28;20198;-71
2022/06/27 04:46:06;;;;;;;7.97;5.60;;;;;;;22.20;66.92;97265.38;5070285;28;20632;-71
2022/06/27 04:48:57;;;;;;;5.83;4.93;;;;;;;22.49;66.47;97258.31;5088638;28;20207;-71
2022/06/27 04:51:24;;;;;;;11.47;4.87;;;;;;;22.85;65.05;97267.41;5053782;28;20201;-71
2022/06/27 04:53:52;;;;;;;5.67;4.40;;;;;;;22.56;65.56;97262.09;5071054;28;20187;-71
2022/06/27 04:56:19;;;;;;;11.77;4.80;;;;;;;21.83;68.15;97272.22;5069952;28;20187;-71
2022/06/27 04:58:49;;;;;;;7.30;5.00;;;;;;;21.90;67.95;97262.81;5089408;28;20213;-71
2022/06/27 05:01:18;;;;;;;9.43;5.33;;;;;;;21.97;67.56;97245.47;5070297;28;20190;-72
2022/06/27 05:03:52;;;;;;;7.17;5.03;;;;;;;22.14;67.91;97260.63;5071581;28;20190;-72
2022/06/27 05:06:27;;;;;;;11.50;4.70;;;;;;;22.15;67.84;97250.94;5070908;28;20256;-72
2022/06/27 05:08:54;;;;;;;11.90;5.57;;;;;;;22.33;67.71;97258.03;5069582;28;20256;-72
2022/06/27 05:11:21;;;;;;;6.50;5.50;;;;;;;22.60;66.40;97252.97;5088872;28;20186;-72
2022/06/27 05:13:48;;;;;;;10.47;5.00;;;;;;;22.57;65.87;97257.63;5087809;28;20191;-71
2022/06/27 05:16:22;;;;;;;9.23;5.70;;;;;;;22.67;65.15;97243.50;5070329;28;20208;-71
2022/06/27 05:18:50;;;;;;;5.97;5.23;;;;;;;22.71;65.32;97259.06;5070232;28;20187;-71
2022/06/27 05:21:37;;;;;;;10.93;5.97;;;;;;;22.51;66.16;97259.03;5072217;28;20175;-71
2022/06/27 05:24:05;;;;;;;7.07;5.57;;;;;;;22.30;67.08;97260.94;5070445;28;20184;-71
2022/06/27 05:26:32;;;;;;;8.40;5.43;;;;;;;22.50;67.06;97257.34;5069174;28;20246;-71
2022/06/27 05:29:01;;;;;;;6.10;4.90;;;;;;;22.91;64.95;97263.34;5070186;28;20200;-71
2022/06/27 05:31:29;;;;;;;10.03;6.00;;;;;;;22.90;65.34;97269.59;5070141;28;20197;-72
2022/06/27 05:33:57;;;;;;;9.77;6.03;;;;;;;23.08;64.37;97268.75;5069785;28;20229;-71
2022/06/27 05:36:24;;;;;;;6.83;5.20;;;;;;;23.42;62.97;97271.78;5036764;28;20729;-71
2022/06/27 05:38:51;;;;;;;7.13;5.13;;;;;;;23.75;62.67;97268.59;5069023;28;20678;-72
2022/06/27 05:41:18;;;;;;;6.10;5.03;;;;;;;23.95;61.57;97275.47;5070134;28;20276;-71
2022/06/27 05:43:47;;;;;;;8.77;4.93;;;;;;;23.83;60.53;97281.09;5069038;28;20198;-72
2022/06/27 05:46:15;;;;;;;7.47;5.07;;;;;;;23.70;61.83;97284.06;5069947;28;20240;-72
2022/06/27 05:48:45;;;;;;;6.20;5.07;;;;;;;23.15;64.75;97285.72;5087628;28;20195;-72
2022/06/27 05:51:24;;;;;;;6.30;5.47;;;;;;;22.76;66.25;97285.88;5052452;28;20288;-72
2022/06/27 05:53:52;;;;;;;7.33;5.40;;;;;;;22.69;67.03;97287.41;5070022;28;20199;-72
2022/06/27 05:56:19;;;;;;;7.23;5.57;;;;;;;22.91;66.15;97287.97;5068659;28;20210;-71
2022/06/27 05:58:48;;;;;;;8.70;5.47;;;;;;;22.96;65.40;97290.16;5086923;28;20196;-72
2022/06/27 06:01:16;;;;;;;12.47;5.63;;;;;;;22.98;66.21;97293.53;5087983;28;20183;-73
2022/06/27 06:03:45;;;;;;;8.30;5.77;;;;;;;22.99;66.13;97289.91;5086159;28;20273;-71
2022/06/27 06:06:13;;;;;;;9.37;4.50;;;;;;;22.96;65.75;97290.16;5070315;28;20313;-72
2022/06/27 06:08:41;;;;;;;8.40;5.60;;;;;;;22.92;66.27;97294.91;5068806;28;20187;-72
2022/06/27 06:11:08;;;;;;;6.97;5.00;;;;;;;23.05;65.41;97281.41;5069781;28;21021;-71
2022/06/27 06:13:36;;;;;;;6.77;4.20;;;;;;;23.27;64.35;97281.94;5068605;28;20191;-72
2022/06/27 06:16:06;;;;;;;5.40;4.27;;;;;;;23.48;64.37;97289.72;5069947;28;20622;-71
2022/06/27 06:18:35;;;;;;;5.50;4.67;;;;;;;23.27;64.88;97295.16;5068281;28;20181;-71
2022/06/27 06:21:02;;;;;;;7.70;4.80;;;;;;;23.16;65.51;97291.84;5069416;28;20197;-71
2022/06/27 06:23:32;;;;;;;6.33;4.57;;;;;;;23.25;65.59;97290.97;5068837;28;20207;-72
2022/06/27 06:26:01;;;;;;;9.10;4.73;;;;;;;23.52;64.66;97272.56;5068497;28;20608;-72
2022/06/27 06:28:31;;;;;;;4.80;4.10;;;;;;;23.70;64.07;97280.59;5069246;28;20187;-72
2022/06/27 06:31:00;;;;;;;9.27;5.37;;;;;;;23.92;63.93;97290.81;5067923;28;20190;-72
2022/06/27 06:33:31;;;;;;;6.03;5.40;;;;;;;23.99;63.75;97292.72;5069725;28;20260;-73
2022/06/27 06:35:59;;;;;;;9.23;5.20;;;;;;;24.03;62.72;97291.47;5051799;28;20648;-74
2022/06/27 06:38:29;;;;;;;7.40;4.80;;;;;;;24.05;63.56;97284.22;5069293;28;20676;-72
2022/06/27 06:40:57;;;;;;;8.63;4.20;;;;;;;24.25;63.08;97292.91;5069030;28;20185;-74
2022/06/27 06:43:25;;;;;;;8.37;4.80;;;;;;;24.37;62.85;97285.56;5068630;28;20195;-73
2022/06/27 06:46:12;;;;;;;7.83;4.77;;;;;;;24.49;61.65;97281.72;5069569;28;20621;-73
2022/06/27 06:48:46;;;;;;;17.60;7.43;;;;;;;24.91;60.71;97274.88;5036450;28;20251;-74
2022/06/27 06:51:18;;;;;;;9.17;4.83;;;;;;;25.46;58.57;97286.91;5068874;28;20188;-73
2022/06/27 06:53:47;;;;;;;9.47;4.80;;;;;;;25.90;55.58;97284.19;5068563;28;20221;-73
2022/06/27 06:56:14;;;;;;;9.77;5.07;;;;;;;26.20;54.72;97281.84;5085977;28;20192;-72
2022/06/27 06:58:41;;;;;;;6.83;4.87;;;;;;;26.45;54.17;97288.06;5086792;28;20196;-72
2022/06/27 07:01:08;;;;;;;7.03;4.50;;;;;;;26.51;51.96;97287.41;5067078;28;20207;-73
2022/06/27 07:03:35;;;;;;;5.87;3.83;;;;;;;26.61;49.72;97290.75;5086807;28;20253;-71
2022/06/27 07:06:03;;;;;;;4.23;3.47;;;;;;;26.54;48.78;97293.22;5085447;28;20247;-74
2022/06/27 07:08:31;;;;;;;4.00;3.60;;;;;;;26.58;48.41;97296.41;5086500;28;20184;-74
2022/06/27 07:10:58;;;;;;;4.60;3.37;;;;;;;26.58;47.52;97301.72;5090255;28;20200;-74
2022/06/27 07:13:25;;;;;;;3.90;3.17;;;;;;;26.63;47.48;97295.91;5089946;28;20184;-73
2022/06/27 07:15:52;;;;;;;4.73;2.93;;;;;;;26.66;48.26;97304.38;5090534;28;20246;-73
2022/06/27 07:18:20;;;;;;;7.00;3.60;;;;;;;26.23;48.83;97291.31;5071639;28;20188;-72
2022/06/27 07:20:47;;;;;;;4.07;3.60;;;;;;;26.39;47.90;97300.16;5090551;28;20225;-73
2022/06/27 07:23:15;;;;;;;5.70;3.30;;;;;;;26.13;47.92;97311.88;5089524;28;20215;-73
2022/06/27 07:25:43;;;;;;;4.90;3.73;;;;;;;26.24;47.66;97299.13;5090134;28;20223;-73
2022/06/27 07:28:10;;;;;;;5.53;3.50;;;;;;;26.27;46.87;97301.47;5089904;28;20181;-73
2022/06/27 07:30:37;;;;;;;4.47;3.23;;;;;;;26.42;46.29;97301.69;5090099;28;20185;-73
2022/06/27 07:33:08;;;;;;;3.10;2.80;;;;;;;26.46;45.93;97303.03;5056010;28;20207;-72
2022/06/27 07:35:36;;;;;;;4.83;3.40;;;;;;;26.30;47.06;97309.09;5054588;28;20228;-73
2022/06/27 07:38:04;;;;;;;3.40;3.10;;;;;;;26.39;46.48;97304.66;5071927;28;20276;-73
2022/06/27 07:40:34;;;;;;;3.33;3.00;;;;;;;26.15;46.71;97304.56;5089325;28;20188;-73
2022/06/27 07:43:05;;;;;;;5.93;3.30;;;;;;;26.10;46.70;97309.50;5071870;28;20200;-73
2022/06/27 07:45:32;;;;;;;4.77;3.10;;;;;;;26.11;46.76;97303.22;5090184;28;20230;-73
2022/06/27 07:47:59;;;;;;;4.20;3.17;;;;;;;26.20;46.80;97315.53;5089126;28;20205;-72
2022/06/27 07:50:38;;;;;;;4.77;3.20;;;;;;;26.22;45.87;97310.88;5071840;28;20237;-73
2022/06/27 07:53:19;;;;;;;4.93;3.20;;;;;;;26.13;46.32;97320.63;5089113;28;20195;-73
2022/06/27 07:55:52;;;;;;;4.33;3.03;;;;;;;25.99;46.50;97325.72;5090025;28;20188;-72
2022/06/27 07:58:26;;;;;;;3.20;3.00;;;;;;;26.12;46.43;97315.50;5087736;28;20683;-74
2022/06/27 08:00:54;;;;;;;5.77;3.50;;;;;;;26.24;46.14;97314.22;5054791;28;20577;-73
2022/06/27 08:03:40;;;;;;;3.77;3.40;;;;;;;26.46;45.88;97319.75;5055238;28;20592;-73
2022/06/27 08:06:16;;;;;;;5.60;3.50;;;;;;;26.67;45.07;97314.00;5088696;28;20640;-73
2022/06/27 08:08:48;;;;;;;4.00;3.20;;;;;;;26.56;45.36;97322.31;5071677;28;20247;-73
2022/06/27 08:11:31;;;;;;;4.63;3.13;;;;;;;26.08;46.91;97322.13;5089514;28;20650;-71
2022/06/27 08:14:05;;;;;;;4.00;3.10;;;;;;;26.21;46.32;97320.69;5070395;28;20197;-73
2022/06/27 08:16:35;;;;;;;5.10;2.97;;;;;;;26.51;46.45;97316.63;5055098;28;20196;-71
2022/06/27 08:19:03;;;;;;;4.60;3.20;;;;;;;26.67;45.95;97316.66;5070359;28;20580;-73
2022/06/27 08:21:31;;;;;;;3.47;3.17;;;;;;;26.88;46.05;97318.88;5089224;28;20193;-74
2022/06/27 08:24:01;;;;;;;4.10;3.40;;;;;;;26.99;45.56;97314.09;5070592;28;20588;-71
2022/06/27 08:26:31;;;;;;;5.47;3.17;;;;;;;26.78;46.18;97327.03;5070750;28;20220;-72
2022/06/27 08:28:59;;;;;;;3.30;3.00;;;;;;;26.72;46.14;97319.72;5089590;28;20276;-73
2022/06/27 08:31:32;;;;;;;5.87;3.83;;;;;;;26.79;46.02;97312.72;5070663;28;20246;-73
2022/06/27 08:34:04;;;;;;;3.73;3.17;;;;;;;26.94;46.42;97319.06;5071353;28;20676;-72
2022/06/27 08:36:35;;;;;;;5.73;3.77;;;;;;;27.01;46.26;97330.72;5069716;28;20723;-72
2022/06/27 08:39:11;;;;;;;3.63;3.23;;;;;;;26.73;46.02;97325.88;5089062;28;20218;-72
2022/06/27 08:41:38;;;;;;;3.73;3.37;;;;;;;26.77;46.53;97325.34;5070145;28;20222;-73
2022/06/27 08:44:06;;;;;;;3.77;3.47;;;;;;;26.60;46.97;97316.47;5088193;28;20200;-72
2022/06/27 08:46:34;;;;;;;3.80;3.40;;;;;;;26.68;46.77;97321.00;5088657;28;20208;-73
2022/06/27 08:49:04;;;;;;;4.17;3.20;;;;;;;26.75;46.64;97319.38;5087873;28;20192;-72
2022/06/27 08:51:33;;;;;;;4.63;3.50;;;;;;;26.83;46.54;97315.91;5054503;28;20839;-72
2022/06/27 08:54:01;;;;;;;5.27;3.73;;;;;;;27.18;45.70;97320.94;5069569;28;20177;-72
2022/06/27 08:56:29;;;;;;;4.73;3.23;;;;;;;27.13;45.47;97318.75;5070703;28;20207;-73
2022/06/27 08:58:59;;;;;;;3.47;3.10;;;;;;;27.18;44.89;97321.72;5088217;28;20594;-73
2022/06/27 09:01:30;;;;;;;6.27;3.67;;;;;;;27.34;45.01;97332.44;5087642;28;20205;-73
2022/06/27 09:04:06;;;;;;;5.03;3.30;;;;;;;26.76;46.63;97314.88;5088592;28;20188;-72
2022/06/27 09:06:52;;;;;;;7.10;3.73;;;;;;;26.52;47.67;97307.69;5087177;28;20738;-72
2022/06/27 09:09:21;;;;;;;5.50;3.60;;;;;;;26.86;47.69;97319.06;5088260;28;20239;-72
2022/06/27 09:11:49;;;;;;;8.33;3.60;;;;;;;26.94;47.32;97312.91;5088163;28;20196;-72
2022/06/27 09:14:40;;;;;;;4.30;3.30;;;;;;;27.03;46.66;97302.13;5053260;28;20761;-73
2022/06/27 09:17:12;;;;;;;3.50;3.20;;;;;;;26.71;47.69;97310.03;5053428;28;20215;-73
2022/06/27 09:19:49;;;;;;;4.53;3.20;;;;;;;26.79;47.27;97312.72;5086859;28;20191;-71
2022/06/27 09:22:20;;;;;;;3.90;3.50;;;;;;;27.25;47.18;97311.25;5070339;28;20192;-73
2022/06/27 09:25:09;;;;;;;3.60;3.30;;;;;;;26.82;47.35;97316.88;5087363;28;20224;-74
2022/06/27 09:27:45;;;;;;;6.47;3.80;;;;;;;26.63;47.88;97304.69;5087304;28;20221;-73
2022/06/27 09:30:18;;;;;;;5.30;3.13;;;;;;;27.09;46.46;97313.94;5087867;28;20200;-72
2022/06/27 09:32:48;;;;;;;4.70;3.50;;;;;;;26.82;47.60;97316.88;5087144;28;20189;-72
2022/06/27 09:35:24;;;;;;;6.87;3.43;;;;;;;26.54;47.22;97319.78;5069672;28;20780;-72
2022/06/27 09:37:54;;;;;;;3.97;3.53;;;;;;;26.47;47.79;97304.66;5087858;28;20192;-72
2022/06/27 09:40:26;;;;;;;4.50;3.37;;;;;;;26.56;46.86;97309.03;5087499;28;20191;-73
2022/06/27 09:42:57;;;;;;;4.30;3.90;;;;;;;26.77;47.58;97306.75;5088675;28;20227;-73
2022/06/27 09:45:27;;;;;;;7.73;7.03;;;;;;;27.11;47.33;97307.47;5069245;28;20199;-73
2022/06/27 09:48:01;;;;;;;3.40;3.10;;;;;;;27.43;46.35;97297.84;5088031;28;20209;-72
2022/06/27 09:50:32;;;;;;;4.00;3.40;;;;;;;27.19;46.53;97309.28;5069463;28;20189;-72
2022/06/27 09:53:01;;;;;;;4.80;3.60;;;;;;;26.63;46.97;97314.53;5088225;28;20196;-72
2022/06/27 09:55:29;;;;;;;5.10;4.23;;;;;;;26.89;46.93;97300.13;5089250;28;20185;-72
2022/06/27 09:57:57;;;;;;;3.83;3.33;;;;;;;26.97;46.78;97308.13;5068200;28;20635;-72
2022/06/27 10:00:24;;;;;;;4.50;3.47;;;;;;;26.87;47.05;97304.78;5069288;28;20207;-73
2022/06/27 10:02:52;;;;;;;5.00;3.33;;;;;;;26.90;46.78;97303.59;5086738;28;20234;-72
2022/06/27 10:05:20;;;;;;;7.63;3.93;;;;;;;27.38;46.28;97296.50;5069992;28;20314;-72
2022/06/27 10:07:58;;;;;;;4.50;3.60;;;;;;;27.48;46.51;97300.81;5086803;28;20252;-72
2022/06/27 10:10:52;;;;;;;3.87;3.53;;;;;;;27.54;46.41;97302.78;5087428;28;20206;-72
2022/06/27 10:13:20;;;;;;;4.70;3.27;;;;;;;27.31;46.60;97311.44;5087691;28;20200;-72
2022/06/27 10:15:49;;;;;;;3.47;3.17;;;;;;;26.99;48.03;97290.19;5087039;28;20195;-72
2022/06/27 10:18:16;;;;;;;4.70;3.60;;;;;;;27.20;46.92;97287.81;5069240;28;20636;-73
2022/06/27 10:20:47;;;;;;;4.13;3.47;;;;;;;27.39;46.79;97297.31;5086829;28;20218;-72
2022/06/27 10:23:14;;;;;;;3.80;3.50;;;;;;;27.15;46.88;97295.50;5069286;28;20196;-72
2022/06/27 10:25:46;;;;;;;3.20;2.90;;;;;;;27.40;47.12;97293.66;5069587;28;20939;-72
2022/06/27 10:28:16;;;;;;;5.50;4.00;;;;;;;27.39;46.89;97294.66;5068294;28;20223;-72
2022/06/27 10:30:56;;;;;;;5.17;4.47;;;;;;;27.50;47.58;97281.00;5053113;28;20269;-71
2022/06/27 10:33:26;;;;;;;6.80;3.60;;;;;;;27.42;47.01;97280.19;5068330;28;20181;-73
2022/06/27 10:36:02;;;;;;;4.77;3.77;;;;;;;27.25;45.74;97285.50;5087894;28;20302;-71
2022/06/27 10:38:30;;;;;;;5.13;3.30;;;;;;;27.48;45.72;97271.53;5086963;28;20283;-72
2022/06/27 10:41:30;;;;;;;5.20;3.90;;;;;;;27.62;45.94;97276.16;5067941;28;20189;-71
2022/06/27 10:43:59;;;;;;;5.00;3.77;;;;;;;27.76;46.22;97262.16;5068221;28;20193;-71
2022/06/27 10:46:26;;;;;;;5.30;4.07;;;;;;;27.90;46.32;97272.09;5068284;28;20733;-71
2022/06/27 10:48:56;;;;;;;3.73;3.43;;;;;;;27.77;45.92;97271.78;5069420;28;20271;-72
2022/06/27 10:51:28;;;;;;;5.00;4.60;;;;;;;27.84;45.96;97262.13;5086712;28;20564;-72
2022/06/27 10:54:05;;;;;;;5.90;3.80;;;;;;;27.56;45.92;97280.34;5068578;28;20194;-72
2022/06/27 10:56:34;;;;;;;5.43;3.63;;;;;;;27.35;46.13;97275.53;5087951;28;20711;-72
2022/06/27 10:59:04;;;;;;;4.10;3.70;;;;;;;27.20;46.30;97277.19;5086632;28;20184;-71
2022/06/27 11:01:32;;;;;;;5.00;3.77;;;;;;;27.28;44.73;97277.19;5052366;28;20277;-73
2022/06/27 11:04:00;;;;;;;3.73;3.43;;;;;;;27.47;44.33;97275.22;5068569;28;20191;-72
2022/06/27 11:06:28;;;;;;;3.40;3.10;;;;;;;27.09;44.77;97269.56;5068645;28;20303;-72
2022/06/27 11:08:56;;;;;;;5.10;4.00;;;;;;;27.27;44.70;97280.84;5086769;28;20184;-72
2022/06/27 11:11:30;;;;;;;7.57;3.67;;;;;;;27.16;45.19;97270.53;5067877;28;20694;-72
2022/06/27 11:13:59;;;;;;;5.63;3.80;;;;;;;27.14;46.59;97261.91;5086311;28;20188;-73
2022/06/27 11:16:30;;;;;;;4.10;3.70;;;;;;;27.26;46.13;97257.94;5085202;28;20215;-72
2022/06/27 11:19:03;;;;;;;4.37;3.50;;;;;;;27.35;46.23;97256.09;5068310;28;20196;-73
2022/06/27 11:21:36;;;;;;;4.60;3.80;;;;;;;27.51;45.99;97252.59;5068333;28;20265;-73
2022/06/27 11:24:08;;;;;;;4.83;4.03;;;;;;;27.45;46.12;97240.75;5085987;28;20185;-72
2022/06/27 11:26:38;;;;;;;4.57;4.07;;;;;;;27.33;47.20;97261.56;5051868;28;20364;-73
2022/06/27 11:32:11;;;;;;;9.33;3.80;;;;;;;27.31;46.08;97257.41;5087971;28;20192;-73
2022/06/27 11:34:41;;;;;;;5.47;3.57;;;;;;;27.50;45.39;97258.88;5086125;28;20687;-72
2022/06/27 11:37:18;;;;;;;5.27;3.67;;;;;;;27.52;45.48;97248.91;5086987;28;20191;-72
2022/06/27 11:40:02;;;;;;;4.20;3.53;;;;;;;27.64;45.26;97252.88;5070040;28;20205;-73
2022/06/27 11:42:33;;;;;;;4.80;3.97;;;;;;;28.08;43.72;97251.41;5088691;28;20628;-72
2022/06/27 11:45:05;;;;;;;4.43;4.00;;;;;;;28.35;44.52;97244.78;5090776;28;20196;-73
2022/06/27 11:47:34;;;;;;;4.43;3.43;;;;;;;28.28;44.77;97249.97;5091127;28;20240;-71
2022/06/27 11:50:03;;;;;;;4.27;3.83;;;;;;;27.78;44.96;97254.84;5082905;28;20185;-72
2022/06/27 11:52:38;;;;;;;4.10;3.53;;;;;;;27.68;45.74;97264.81;5098097;28;20252;-72
2022/06/27 11:55:09;;;;;;;5.43;3.77;;;;;;;27.48;45.90;97261.72;5070448;28;20192;-72